Time;durP1;ratioP1;P1;durP2;ratioP2;P2;SDS_P1;SDS_P2;PMS_P1;PMS_P2;Temp;Humidity;BMP_temperature;BMP_pressure;BME280_temperature;BME280_humidity;BME280_pressure;Samples;Min_cycle;Max_cycle;Signal;HPM_P1;HPM_P2
2023/05/09 00:00:05;;;;;;;12.10;8.55;;;;;;;13.49;100.00;100851.91;5032332;28;20084;-80
2023/05/09 00:02:33;;;;;;;10.93;8.93;;;;;;;13.49;100.00;100860.56;5014355;28;20018;-75
2023/05/09 00:05:02;;;;;;;13.77;8.50;;;;;;;13.59;100.00;100877.31;4997285;28;20044;-75
2023/05/09 00:07:28;;;;;;;11.07;7.82;;;;;;;13.53;100.00;100864.16;5014612;28;20029;-75
2023/05/09 00:09:53;;;;;;;12.25;8.23;;;;;;;13.15;100.00;100802.44;5031926;28;20467;-79
2023/05/09 00:12:19;;;;;;;10.43;8.45;;;;;;;13.57;100.00;100868.59;5031830;28;20018;-77
2023/05/09 00:14:44;;;;;;;12.05;7.95;;;;;;;13.01;100.00;100782.97;5032402;28;20433;-77
2023/05/09 00:17:13;;;;;;;11.10;8.43;;;;;;;13.57;100.00;100873.78;5031988;28;20423;-76
2023/05/09 00:19:39;;;;;;;10.23;7.68;;;;;;;13.69;100.00;100870.69;4996755;28;20048;-77
2023/05/09 00:22:04;;;;;;;14.70;8.68;;;;;;;13.79;100.00;100872.72;5031693;28;20021;-77
2023/05/09 00:24:29;;;;;;;9.35;7.45;;;;;;;13.65;100.00;100861.06;5031976;28;20028;-78
2023/05/09 00:26:55;;;;;;;9.32;7.90;;;;;;;13.70;100.00;100864.69;5031436;28;20021;-76
2023/05/09 00:29:20;;;;;;;11.00;7.38;;;;;;;13.68;100.00;100867.22;5031708;28;20025;-76
2023/05/09 00:31:46;;;;;;;11.50;6.93;;;;;;;13.54;100.00;100858.13;5031869;28;20017;-76
2023/05/09 00:34:11;;;;;;;8.82;7.20;;;;;;;13.60;100.00;100884.25;5031967;28;20017;-78
2023/05/09 00:36:36;;;;;;;10.55;7.57;;;;;;;13.04;100.00;100794.31;5031866;28;20032;-78
2023/05/09 00:39:02;;;;;;;10.82;7.72;;;;;;;13.49;100.00;100876.13;5030179;28;20411;-76
2023/05/09 00:41:27;;;;;;;10.88;7.45;;;;;;;13.43;100.00;100868.16;5031964;28;20018;-79
2023/05/09 00:43:53;;;;;;;9.27;7.30;;;;;;;13.46;100.00;100870.88;5031346;28;20091;-77
2023/05/09 00:46:18;;;;;;;9.43;7.82;;;;;;;13.54;100.00;100873.69;5031204;28;20446;-77
2023/05/09 00:48:45;;;;;;;12.15;7.55;;;;;;;13.33;100.00;100853.13;5031709;28;20021;-78
2023/05/09 00:51:10;;;;;;;8.93;8.02;;;;;;;13.42;100.00;100893.22;5031577;28;20022;-78
2023/05/09 00:53:36;;;;;;;14.98;8.00;;;;;;;13.04;100.00;100809.84;5031283;28;20049;-77
2023/05/09 00:56:02;;;;;;;8.32;6.72;;;;;;;13.34;100.00;100862.66;5031184;28;20028;-79
2023/05/09 00:58:28;;;;;;;10.13;7.50;;;;;;;13.22;100.00;100839.78;5030779;28;20017;-77
2023/05/09 01:00:54;;;;;;;15.80;7.43;;;;;;;13.50;100.00;100877.91;5030784;28;20476;-77
2023/05/09 01:03:19;;;;;;;8.52;7.13;;;;;;;13.41;100.00;100855.16;5031108;28;20026;-77
2023/05/09 01:06:05;;;;;;;11.50;7.85;;;;;;;13.47;100.00;100884.69;5031350;28;20379;-77
2023/05/09 01:08:43;;;;;;;10.82;7.55;;;;;;;13.50;100.00;100882.22;5030794;28;20507;-81
2023/05/09 01:11:25;;;;;;;12.68;7.22;;;;;;;13.47;100.00;100887.28;5029878;28;20424;-76
2023/05/09 01:14:00;;;;;;;10.77;6.80;;;;;;;13.41;100.00;100886.28;5030658;28;20112;-77
2023/05/09 01:16:37;;;;;;;9.27;7.43;;;;;;;13.37;100.00;100858.50;5031452;28;20379;-78
2023/05/09 01:19:36;;;;;;;9.52;6.45;;;;;;;13.47;100.00;100887.28;5030748;28;20075;-77
2023/05/09 01:22:06;;;;;;;10.80;6.47;;;;;;;12.95;100.00;100805.25;5029672;28;20534;-77
2023/05/09 01:24:50;;;;;;;;;;;;;;;13.40;100.00;100881.03;5031151;28;20095;-76
2023/05/09 01:27:48;;;;;;;11.13;6.88;;;;;;;13.37;100.00;100887.00;5023762;28;20270;-80
2023/05/09 01:30:16;;;;;;;11.45;6.18;;;;;;;13.29;100.00;100887.56;4950076;29;20485;-76
2023/05/09 01:32:48;;;;;;;11.02;6.00;;;;;;;13.35;100.00;100887.75;4950138;29;20118;-82
2023/05/09 01:35:15;;;;;;;10.25;5.85;;;;;;;13.38;100.00;100901.75;4950197;29;20043;-76
2023/05/09 01:37:43;;;;;;;8.18;6.07;;;;;;;13.34;100.00;100902.41;4950146;29;20043;-78
2023/05/09 01:40:16;;;;;;;8.77;6.20;;;;;;;13.42;100.00;100898.41;4950184;29;20055;-77
2023/05/09 01:42:46;;;;;;;9.68;5.90;;;;;;;13.00;100.00;100807.13;4949760;29;20029;-83
2023/05/09 01:45:13;;;;;;;11.82;6.85;;;;;;;13.33;100.00;100863.50;4949841;29;20558;-77
2023/05/09 01:47:40;;;;;;;10.35;6.57;;;;;;;13.57;100.00;100905.81;4949886;29;20039;-76
2023/05/09 01:50:08;;;;;;;10.38;6.30;;;;;;;13.60;100.00;100902.41;4949873;29;20031;-79
2023/05/09 01:52:36;;;;;;;13.07;6.60;;;;;;;13.52;100.00;100897.00;4950059;29;20035;-77
2023/05/09 01:55:03;;;;;;;10.35;6.55;;;;;;;13.47;100.00;100895.97;4949625;29;20049;-77
2023/05/09 01:57:29;;;;;;;10.20;6.20;;;;;;;13.44;100.00;100906.22;4949786;29;20114;-77
2023/05/09 01:59:57;;;;;;;9.77;6.20;;;;;;;13.21;100.00;100869.19;4949780;29;20055;-77
2023/05/09 02:02:24;;;;;;;13.30;7.15;;;;;;;13.34;100.00;100898.97;4930547;29;20063;-77
2023/05/09 02:04:52;;;;;;;10.05;7.38;;;;;;;13.40;100.00;100900.06;4930494;29;20088;-80
2023/05/09 02:07:19;;;;;;;10.18;6.40;;;;;;;13.31;100.00;100896.25;4964854;28;20113;-77
2023/05/09 02:09:46;;;;;;;11.35;6.88;;;;;;;13.28;100.00;100897.03;4988323;28;20748;-76
2023/05/09 02:12:11;;;;;;;8.95;7.28;;;;;;;13.26;100.00;100896.13;4992754;28;20022;-78
2023/05/09 02:14:36;;;;;;;10.63;7.78;;;;;;;13.24;100.00;100903.84;4992365;28;20038;-77
2023/05/09 02:17:05;;;;;;;12.90;7.78;;;;;;;12.84;100.00;100842.91;4992521;28;20030;-76
2023/05/09 02:19:33;;;;;;;15.60;7.88;;;;;;;13.08;100.00;100905.06;4992367;28;20038;-76
2023/05/09 02:21:59;;;;;;;11.65;7.88;;;;;;;13.03;100.00;100904.00;4992342;28;20037;-76
2023/05/09 02:24:24;;;;;;;10.50;8.43;;;;;;;13.04;100.00;100897.13;4975605;28;20043;-76
2023/05/09 02:26:50;;;;;;;13.85;9.10;;;;;;;12.95;100.00;100897.69;4992160;28;20114;-77
2023/05/09 02:29:18;;;;;;;16.20;9.63;;;;;;;12.81;100.00;100858.34;4992508;28;20037;-77
2023/05/09 02:31:47;;;;;;;11.23;8.10;;;;;;;12.79;100.00;100836.69;4992121;28;20393;-81
2023/05/09 02:34:13;;;;;;;10.10;8.37;;;;;;;13.11;100.00;100889.59;4992247;28;20744;-76
2023/05/09 02:36:39;;;;;;;11.40;7.80;;;;;;;12.94;100.00;100886.41;4991963;28;20026;-76
2023/05/09 02:39:06;;;;;;;12.80;7.88;;;;;;;12.90;100.00;100894.94;5000279;28;20035;-75
2023/05/09 02:41:31;;;;;;;12.45;8.02;;;;;;;13.01;100.00;100907.38;5034047;28;20037;-76
2023/05/09 02:43:56;;;;;;;15.45;7.43;;;;;;;12.73;100.00;100849.44;5033786;28;20022;-77
2023/05/09 02:46:22;;;;;;;11.15;7.13;;;;;;;13.08;100.00;100905.06;5033548;28;20017;-77
2023/05/09 02:48:48;;;;;;;15.30;7.78;;;;;;;13.14;100.00;100911.28;5033606;28;20025;-74
2023/05/09 02:51:13;;;;;;;14.95;6.80;;;;;;;13.11;100.00;100892.19;5033540;28;20049;-76
2023/05/09 02:53:39;;;;;;;11.45;7.28;;;;;;;12.85;100.00;100831.72;5015800;28;20022;-77
2023/05/09 02:56:04;;;;;;;16.17;7.13;;;;;;;12.90;100.00;100839.66;5033417;28;20112;-79
2023/05/09 02:58:33;;;;;;;13.82;6.82;;;;;;;13.37;100.00;100920.72;5033883;28;20059;-76
2023/05/09 03:00:58;;;;;;;13.77;6.20;;;;;;;13.11;100.00;100881.81;5033596;28;20462;-76
2023/05/09 03:03:24;;;;;;;11.50;6.72;;;;;;;12.64;100.00;100831.88;5033642;28;20017;-76
2023/05/09 03:05:49;;;;;;;8.45;6.28;;;;;;;12.66;100.00;100838.00;5033228;28;20067;-76
2023/05/09 03:08:15;;;;;;;13.63;6.03;;;;;;;13.13;100.00;100925.94;5033444;28;20071;-75
2023/05/09 03:10:40;;;;;;;11.88;6.03;;;;;;;13.07;100.00;100934.41;5033311;28;20079;-75
2023/05/09 03:13:05;;;;;;;10.27;6.35;;;;;;;12.71;100.00;100864.94;5033294;28;20025;-77
2023/05/09 03:15:31;;;;;;;12.10;5.70;;;;;;;13.11;100.00;100943.16;5033391;28;20098;-76
2023/05/09 03:17:56;;;;;;;12.30;6.40;;;;;;;13.04;100.00;100934.28;5033037;28;20490;-77
2023/05/09 03:20:22;;;;;;;9.98;6.03;;;;;;;13.16;100.00;100949.38;5015243;28;20468;-77
2023/05/09 03:22:47;;;;;;;9.02;5.65;;;;;;;12.83;100.00;100881.72;5031766;28;20025;-76
2023/05/09 03:25:13;;;;;;;10.57;5.97;;;;;;;13.24;100.00;100957.41;5033105;28;20033;-77
2023/05/09 03:27:38;;;;;;;8.30;5.18;;;;;;;12.85;100.00;100886.13;5032978;28;20026;-74
2023/05/09 03:30:06;;;;;;;9.43;5.32;;;;;;;13.26;100.00;100967.00;5007581;28;20042;-76
2023/05/09 03:32:31;;;;;;;9.10;5.88;;;;;;;13.31;100.00;100969.75;5033003;28;20167;-76
2023/05/09 03:34:57;;;;;;;11.63;5.57;;;;;;;13.28;100.00;100974.81;5033085;28;20526;-77
2023/05/09 03:37:24;;;;;;;12.30;6.13;;;;;;;13.16;100.00;100961.44;5028289;28;20140;-76
2023/05/09 03:39:49;;;;;;;11.32;6.57;;;;;;;13.32;100.00;100987.09;5032769;28;20032;-76
2023/05/09 03:42:14;;;;;;;9.32;5.97;;;;;;;13.32;100.00;100999.16;5032848;28;20033;-76
2023/05/09 03:44:40;;;;;;;11.63;7.47;;;;;;;13.16;100.00;100977.00;5032627;28;20026;-76
2023/05/09 03:47:06;;;;;;;12.52;7.32;;;;;;;13.25;100.00;100979.94;5032923;28;20040;-77
2023/05/09 03:49:32;;;;;;;11.75;7.85;;;;;;;13.38;100.00;100995.13;5032643;28;20026;-76
2023/05/09 03:51:57;;;;;;;14.95;8.43;;;;;;;13.00;100.00;100940.19;5032226;28;20033;-76
2023/05/09 03:54:23;;;;;;;21.20;8.65;;;;;;;13.18;100.00;100981.41;5032343;28;20029;-76
2023/05/09 03:56:48;;;;;;;17.90;8.80;;;;;;;13.20;100.00;101004.81;5032354;28;20018;-76
2023/05/09 03:59:14;;;;;;;13.23;7.47;;;;;;;13.24;100.00;101011.88;5032376;28;20108;-77
2023/05/09 04:01:40;;;;;;;15.07;8.95;;;;;;;13.22;100.00;101010.91;4997113;28;20044;-77
2023/05/09 04:04:06;;;;;;;14.18;7.95;;;;;;;12.45;100.00;100885.59;5041959;28;20468;-74
2023/05/09 04:06:32;;;;;;;17.13;8.85;;;;;;;13.27;100.00;101010.25;5052365;28;20176;-75
2023/05/09 04:08:57;;;;;;;16.13;9.23;;;;;;;13.21;100.00;101002.28;5041571;28;20021;-75
2023/05/09 04:11:23;;;;;;;14.55;8.82;;;;;;;13.23;100.00;101000.63;5031373;28;20033;-76
2023/05/09 04:13:48;;;;;;;13.50;8.45;;;;;;;13.25;100.00;101013.63;5031317;28;20033;-76
2023/05/09 04:16:14;;;;;;;13.77;9.52;;;;;;;13.21;100.00;101002.28;5032049;28;20464;-74
2023/05/09 04:18:41;;;;;;;13.45;8.68;;;;;;;13.28;100.00;101016.31;5031653;28;20025;-76
2023/05/09 04:21:06;;;;;;;14.65;8.90;;;;;;;13.16;100.00;100995.16;5030895;28;20034;-76
2023/05/09 04:23:32;;;;;;;16.55;9.27;;;;;;;13.31;100.00;101020.72;5031391;28;20079;-77
2023/05/09 04:25:58;;;;;;;13.45;8.57;;;;;;;13.25;100.00;101018.81;5030947;28;20045;-75
2023/05/09 04:28:23;;;;;;;16.65;8.93;;;;;;;13.22;100.00;101017.00;5031269;28;20010;-77
2023/05/09 04:30:48;;;;;;;10.55;8.50;;;;;;;13.22;100.00;101006.63;5030955;28;20392;-76
2023/05/09 04:33:14;;;;;;;15.68;9.20;;;;;;;13.42;100.00;101024.59;5030953;28;20025;-76
2023/05/09 04:35:40;;;;;;;16.08;9.30;;;;;;;13.49;100.00;101016.19;5031112;28;20541;-74
2023/05/09 04:38:08;;;;;;;13.13;8.90;;;;;;;13.47;100.00;101015.28;5031319;28;20588;-76
2023/05/09 04:40:33;;;;;;;13.50;8.23;;;;;;;13.43;100.00;101021.19;5030796;28;20040;-77
2023/05/09 04:43:00;;;;;;;12.55;9.05;;;;;;;13.56;100.00;101038.94;5030760;28;20017;-76
2023/05/09 04:45:26;;;;;;;12.43;8.02;;;;;;;13.61;100.00;101033.91;5044181;28;20051;-76
2023/05/09 04:47:52;;;;;;;12.48;8.55;;;;;;;13.46;100.00;101031.69;5051131;28;20021;-78
2023/05/09 04:50:17;;;;;;;10.23;8.27;;;;;;;13.52;100.00;101030.97;5051199;28;20031;-77
2023/05/09 04:52:43;;;;;;;11.68;8.55;;;;;;;13.19;100.00;100972.81;5051314;28;20025;-76
2023/05/09 04:55:08;;;;;;;13.20;7.72;;;;;;;13.62;100.00;101033.09;5051772;28;20741;-75
2023/05/09 04:57:34;;;;;;;13.23;8.23;;;;;;;13.55;100.00;101037.16;5039455;28;20437;-78
2023/05/09 04:59:59;;;;;;;21.60;8.98;;;;;;;13.63;100.00;101028.75;5013442;28;20053;-79
2023/05/09 05:02:25;;;;;;;10.38;8.60;;;;;;;13.15;100.00;100957.13;5046354;28;20022;-76
2023/05/09 05:04:50;;;;;;;9.82;7.55;;;;;;;13.30;100.00;100991.34;5030840;28;20029;-76
2023/05/09 05:07:16;;;;;;;10.80;7.78;;;;;;;13.22;100.00;100959.97;5030182;28;20036;-77
2023/05/09 05:09:41;;;;;;;12.77;7.45;;;;;;;13.72;100.00;101029.94;5030976;28;20021;-76
2023/05/09 05:12:07;;;;;;;14.15;9.25;;;;;;;13.33;100.00;100977.59;5026458;28;20032;-78
2023/05/09 05:14:33;;;;;;;12.82;8.27;;;;;;;13.75;100.00;101039.56;5021235;28;20091;-76
2023/05/09 05:16:58;;;;;;;13.75;8.45;;;;;;;13.55;100.00;101005.16;5030654;28;20467;-75
2023/05/09 05:19:25;;;;;;;14.77;10.23;;;;;;;13.55;100.00;101033.69;5029960;28;20534;-80
2023/05/09 05:21:51;;;;;;;13.85;9.52;;;;;;;13.36;100.00;101020.06;5030792;28;20029;-83
2023/05/09 05:24:16;;;;;;;14.05;9.57;;;;;;;13.41;100.00;101036.69;5030390;28;20438;-77
2023/05/09 05:26:41;;;;;;;10.77;8.77;;;;;;;13.24;100.00;100979.03;5020417;28;20017;-85
2023/05/09 05:29:07;;;;;;;13.68;9.35;;;;;;;13.13;100.00;100953.56;5014924;28;20029;-80
2023/05/09 05:31:33;;;;;;;13.40;9.27;;;;;;;13.58;100.00;101034.69;5027017;28;20025;-87
2023/05/09 05:33:58;;;;;;;12.57;8.77;;;;;;;13.51;100.00;101011.97;5010545;28;20045;-84
2023/05/09 05:36:24;;;;;;;15.02;8.45;;;;;;;13.64;100.00;101027.94;5025785;28;20084;-84
2023/05/09 05:38:50;;;;;;;13.50;8.98;;;;;;;13.70;100.00;101023.81;5023969;28;20021;-84
2023/05/09 05:41:15;;;;;;;12.10;8.77;;;;;;;13.37;100.00;100974.25;5017460;28;20048;-84
2023/05/09 05:43:41;;;;;;;15.68;8.35;;;;;;;13.52;100.00;101005.94;4999748;28;20453;-83
2023/05/09 05:46:06;;;;;;;10.80;8.23;;;;;;;13.80;100.00;101047.50;5023427;28;20464;-88
2023/05/09 05:48:32;;;;;;;13.10;8.63;;;;;;;13.70;100.00;101043.72;5025140;28;20083;-81
2023/05/09 05:50:57;;;;;;;13.40;8.30;;;;;;;13.71;100.00;101058.44;5010492;28;20030;-79
2023/05/09 05:53:43;;;;;;;10.73;8.40;;;;;;;13.58;100.00;101044.16;5011206;28;20029;-78
2023/05/09 05:56:08;;;;;;;14.70;7.43;;;;;;;13.26;100.00;100986.88;4970494;28;20042;-82
2023/05/09 05:58:33;;;;;;;11.93;8.27;;;;;;;13.69;100.00;101055.78;4968871;28;20027;-82
2023/05/09 06:00:59;;;;;;;11.70;7.72;;;;;;;13.70;100.00;101051.50;4951707;28;20430;-81
2023/05/09 06:03:25;;;;;;;12.80;7.82;;;;;;;13.59;100.00;101043.34;4968683;28;20042;-83
2023/05/09 06:05:50;;;;;;;10.10;7.40;;;;;;;13.52;100.00;101038.75;4981161;28;20046;-81
2023/05/09 06:08:16;;;;;;;13.73;9.25;;;;;;;13.61;100.00;101058.94;4967690;28;20250;-79
2023/05/09 06:10:41;;;;;;;14.52;9.60;;;;;;;13.64;100.00;101061.66;4968305;28;20055;-78
2023/05/09 06:13:06;;;;;;;13.32;10.10;;;;;;;13.58;100.00;101060.63;4968480;28;20034;-78
2023/05/09 06:15:32;;;;;;;13.60;11.02;;;;;;;13.56;100.00;101070.06;4968127;28;20118;-76
2023/05/09 06:17:58;;;;;;;15.18;11.02;;;;;;;13.55;100.00;101067.41;4977779;28;20022;-77
2023/05/09 06:20:23;;;;;;;16.00;11.40;;;;;;;13.43;100.00;101070.47;4987955;28;20028;-78
2023/05/09 06:22:49;;;;;;;15.30;10.23;;;;;;;13.26;100.00;101075.91;4987392;28;20048;-76
2023/05/09 06:25:14;;;;;;;18.55;11.43;;;;;;;12.88;100.00;101035.63;4986407;28;20042;-76
2023/05/09 06:27:41;;;;;;;16.33;11.00;;;;;;;13.23;100.00;101072.31;5020249;28;20037;-76
2023/05/09 06:30:07;;;;;;;14.45;9.48;;;;;;;13.01;100.00;101056.00;5038902;28;20025;-82
2023/05/09 06:32:32;;;;;;;15.75;11.18;;;;;;;12.84;100.00;101051.91;5029321;28;20029;-74
2023/05/09 06:34:57;;;;;;;17.65;11.15;;;;;;;13.05;100.00;101064.78;5029399;28;20020;-74
2023/05/09 06:37:23;;;;;;;15.93;10.00;;;;;;;13.10;100.00;101064.09;5029324;28;20120;-76
2023/05/09 06:39:49;;;;;;;15.43;9.30;;;;;;;13.20;100.00;101052.34;5029256;28;20475;-78
2023/05/09 06:42:15;;;;;;;10.75;7.95;;;;;;;13.07;100.00;101057.91;5029169;28;20026;-78
2023/05/09 06:44:42;;;;;;;12.55;8.57;;;;;;;13.20;100.00;101067.91;5044487;28;20099;-81
2023/05/09 06:47:08;;;;;;;10.20;8.07;;;;;;;13.29;100.00;101064.75;5029387;28;20091;-76
2023/05/09 06:49:33;;;;;;;13.32;7.82;;;;;;;13.47;100.00;101067.16;5029721;28;20033;-79
2023/05/09 06:51:59;;;;;;;10.18;7.38;;;;;;;13.49;100.00;101049.06;5029061;28;20049;-77
2023/05/09 06:54:24;;;;;;;11.65;7.32;;;;;;;13.47;100.00;101043.81;5011393;28;20014;-77
2023/05/09 06:56:49;;;;;;;12.75;6.60;;;;;;;13.33;100.00;101009.56;5030893;28;20033;-77
2023/05/09 06:59:15;;;;;;;8.82;5.88;;;;;;;13.49;100.00;101029.16;5032725;28;20021;-77
2023/05/09 07:01:41;;;;;;;9.95;5.25;;;;;;;13.43;100.00;101032.47;5014633;28;20442;-77
2023/05/09 07:07:28;;;;;;;8.88;5.35;;;;;;;12.97;100.00;100991.91;5188446;22;20518;-77
2023/05/09 07:09:53;;;;;;;11.25;5.20;;;;;;;13.43;100.00;101081.72;5053478;28;20020;-78
2023/05/09 07:12:19;;;;;;;9.10;5.78;;;;;;;13.46;100.00;101083.56;5071564;28;20578;-77
2023/05/09 07:14:44;;;;;;;9.88;6.88;;;;;;;13.30;100.00;101061.34;5055204;28;20398;-77
2023/05/09 07:17:10;;;;;;;9.60;7.20;;;;;;;13.08;100.00;101064.88;5054653;28;20191;-76
2023/05/09 07:19:35;;;;;;;9.65;7.00;;;;;;;13.01;100.00;101044.72;5072886;28;20108;-76
2023/05/09 07:22:00;;;;;;;10.32;7.10;;;;;;;12.80;100.00;100999.09;5055031;28;20115;-76
2023/05/09 07:24:26;;;;;;;10.02;6.82;;;;;;;13.28;100.00;101073.34;5072818;28;20062;-77
2023/05/09 07:26:51;;;;;;;10.07;6.53;;;;;;;13.32;100.00;101049.31;5072705;28;20096;-76
2023/05/09 07:29:19;;;;;;;9.80;5.70;;;;;;;13.45;100.00;101071.41;5072900;28;20390;-77
2023/05/09 07:31:44;;;;;;;7.32;5.72;;;;;;;13.06;100.00;101007.81;5072591;28;20028;-77
2023/05/09 07:34:10;;;;;;;9.02;5.63;;;;;;;13.52;100.00;101082.88;5073039;28;20020;-76
2023/05/09 07:36:36;;;;;;;11.77;6.22;;;;;;;13.43;100.00;101079.13;5054618;28;20035;-76
2023/05/09 07:39:03;;;;;;;14.73;6.20;;;;;;;13.36;100.00;101046.00;5072159;28;20032;-78
2023/05/09 07:41:30;;;;;;;14.70;5.88;;;;;;;12.77;100.00;100945.47;5072478;28;20036;-80
2023/05/09 07:43:55;;;;;;;9.13;6.35;;;;;;;13.38;100.00;101051.25;5072430;28;20016;-77
2023/05/09 07:46:20;;;;;;;12.65;6.38;;;;;;;13.05;100.00;100976.66;5072429;28;20036;-78
2023/05/09 07:48:46;;;;;;;12.43;6.15;;;;;;;13.61;100.00;101057.25;5072537;28;20021;-77
2023/05/09 07:51:11;;;;;;;7.53;5.72;;;;;;;13.49;100.00;101016.19;5054423;28;20039;-77
2023/05/09 07:53:37;;;;;;;12.00;6.13;;;;;;;13.57;100.00;101013.84;5072155;28;20055;-78
2023/05/09 07:56:02;;;;;;;8.75;5.32;;;;;;;13.89;100.00;101069.44;5072162;28;20399;-78
2023/05/09 07:58:28;;;;;;;9.85;5.75;;;;;;;12.78;100.00;100882.44;5072279;28;20043;-77
2023/05/09 08:00:55;;;;;;;17.67;6.43;;;;;;;13.77;100.00;101045.69;5072403;28;20271;-77
2023/05/09 08:03:21;;;;;;;12.05;5.85;;;;;;;13.82;100.00;101056.19;5071356;28;20169;-77
2023/05/09 08:05:46;;;;;;;6.90;5.13;;;;;;;13.95;100.00;101088.66;5053793;28;20103;-76
2023/05/09 08:08:11;;;;;;;10.90;5.72;;;;;;;13.86;100.00;101066.72;5069749;28;20113;-77
2023/05/09 08:10:37;;;;;;;8.27;5.53;;;;;;;13.88;100.00;101088.44;5070413;28;20024;-75
2023/05/09 08:13:02;;;;;;;10.60;6.05;;;;;;;13.95;100.00;101094.72;5071646;28;20017;-80
2023/05/09 08:15:28;;;;;;;11.90;5.78;;;;;;;13.93;100.00;101085.09;5071897;28;20028;-80
2023/05/09 08:17:53;;;;;;;9.13;5.15;;;;;;;13.82;100.00;101069.16;5053867;28;20016;-79
2023/05/09 08:20:19;;;;;;;9.45;5.30;;;;;;;13.64;100.00;101038.31;5071820;28;20026;-77
2023/05/09 08:22:44;;;;;;;10.95;5.10;;;;;;;13.93;100.00;101091.16;5071302;28;20119;-75
2023/05/09 08:25:10;;;;;;;9.85;5.68;;;;;;;13.95;98.99;101094.72;5071862;28;20044;-74
2023/05/09 08:27:35;;;;;;;10.15;5.68;;;;;;;13.96;100.00;101100.81;5071690;28;20025;-74
2023/05/09 08:30:01;;;;;;;9.02;5.78;;;;;;;13.86;100.00;101073.66;5071270;28;20086;-73
2023/05/09 08:32:26;;;;;;;9.82;5.45;;;;;;;13.96;100.00;101096.47;5071613;28;20480;-74
2023/05/09 08:34:51;;;;;;;15.63;6.18;;;;;;;14.07;100.00;101096.84;5068170;28;20060;-75
2023/05/09 08:37:17;;;;;;;8.07;5.35;;;;;;;14.07;100.00;101094.25;5070945;28;20085;-73
2023/05/09 08:39:42;;;;;;;10.10;5.45;;;;;;;14.03;98.57;101088.06;5071245;28;20458;-74
2023/05/09 08:42:09;;;;;;;12.82;5.45;;;;;;;14.10;99.02;101090.88;5070879;28;20028;-74
2023/05/09 08:44:34;;;;;;;8.63;5.43;;;;;;;13.63;98.41;101016.66;5070585;28;20494;-73
2023/05/09 08:47:01;;;;;;;8.35;5.20;;;;;;;13.88;98.16;101085.84;5019193;28;20043;-73
2023/05/09 08:49:28;;;;;;;9.13;5.20;;;;;;;13.65;98.84;101084.19;5070984;28;20040;-75
2023/05/09 08:51:54;;;;;;;11.23;5.47;;;;;;;13.69;100.00;101086.91;5070605;28;20036;-72
2023/05/09 08:54:21;;;;;;;9.90;6.05;;;;;;;13.71;99.66;101079.22;5071079;28;20505;-75
2023/05/09 08:56:47;;;;;;;10.07;5.80;;;;;;;13.40;99.79;101013.31;5070940;28;20036;-73
2023/05/09 08:59:13;;;;;;;12.35;6.25;;;;;;;13.52;100.00;101021.50;5070629;28;20029;-74
2023/05/09 09:01:39;;;;;;;11.55;6.05;;;;;;;13.90;99.23;101080.69;5070705;28;20036;-74
2023/05/09 09:04:06;;;;;;;11.35;6.53;;;;;;;13.96;100.00;101082.63;5069803;28;20046;-76
2023/05/09 09:06:35;;;;;;;8.45;6.90;;;;;;;13.94;100.00;101061.78;5070425;28;20052;-74
2023/05/09 09:09:04;;;;;;;9.38;6.55;;;;;;;14.18;100.00;101072.09;5070253;28;20043;-75
2023/05/09 09:11:31;;;;;;;13.40;6.32;;;;;;;14.26;100.00;101067.16;5070535;28;20040;-76
2023/05/09 09:14:01;;;;;;;12.82;6.70;;;;;;;14.30;100.00;101058.59;5070614;28;20017;-75
2023/05/09 09:16:28;;;;;;;11.57;6.53;;;;;;;14.41;100.00;101074.53;5070629;28;20039;-73
2023/05/09 09:18:55;;;;;;;9.20;6.18;;;;;;;14.37;100.00;101065.75;5069935;28;20028;-75
2023/05/09 09:21:22;;;;;;;9.07;7.15;;;;;;;14.50;100.00;101082.59;5069701;28;20033;-73
2023/05/09 09:23:48;;;;;;;10.35;6.20;;;;;;;14.63;100.00;101067.38;5070709;28;20473;-73
2023/05/09 09:26:14;;;;;;;8.77;5.60;;;;;;;14.55;99.19;101056.75;5070268;28;20047;-73
2023/05/09 09:28:40;;;;;;;10.57;6.70;;;;;;;14.28;98.13;101008.34;5069762;28;20413;-75
2023/05/09 09:31:29;;;;;;;9.63;5.32;;;;;;;14.79;98.84;101076.53;5070167;28;20032;-74
2023/05/09 09:34:01;;;;;;;7.30;5.35;;;;;;;14.84;97.68;101075.88;5069881;28;20039;-73
2023/05/09 09:36:28;;;;;;;10.20;5.50;;;;;;;14.39;95.57;101003.44;5070317;28;20090;-74
2023/05/09 09:39:05;;;;;;;8.95;5.88;;;;;;;14.77;95.32;101070.44;5068265;28;20039;-77
2023/05/09 09:41:31;;;;;;;8.77;5.65;;;;;;;14.51;96.07;100992.56;5067964;28;20039;-74
2023/05/09 09:43:57;;;;;;;9.27;5.43;;;;;;;14.98;95.67;101060.66;5067804;28;20086;-74
2023/05/09 09:46:23;;;;;;;7.55;4.97;;;;;;;15.01;92.66;101076.31;5070407;28;20036;-75
2023/05/09 09:48:53;;;;;;;7.97;5.30;;;;;;;14.80;91.20;101031.53;5052437;28;20471;-74
2023/05/09 09:51:19;;;;;;;7.10;5.05;;;;;;;14.44;91.62;100939.53;5070357;28;20028;-78
2023/05/09 09:53:46;;;;;;;8.35;4.82;;;;;;;15.13;89.95;101054.13;5070539;28;20044;-75
2023/05/09 09:56:12;;;;;;;8.85;4.78;;;;;;;15.28;90.66;101070.16;5070616;28;20028;-76
2023/05/09 09:58:37;;;;;;;7.15;4.60;;;;;;;15.23;91.44;101065.66;5052193;28;20081;-75
2023/05/09 10:01:08;;;;;;;8.98;4.70;;;;;;;15.23;88.62;101065.66;5062605;28;20472;-75
2023/05/09 10:03:43;;;;;;;13.63;5.38;;;;;;;15.29;88.23;101069.31;5061349;28;20037;-74
2023/05/09 10:06:14;;;;;;;10.10;4.70;;;;;;;15.37;87.45;101061.72;5069649;28;20505;-76
2023/05/09 10:08:40;;;;;;;5.95;4.30;;;;;;;15.34;87.44;101054.72;5058614;28;20529;-75
2023/05/09 10:11:06;;;;;;;5.63;4.20;;;;;;;15.13;86.44;101017.72;5041501;28;20025;-76
2023/05/09 10:13:35;;;;;;;7.95;4.50;;;;;;;15.50;89.05;101058.59;5060849;28;20028;-76
2023/05/09 10:16:02;;;;;;;6.47;4.55;;;;;;;15.47;89.61;101045.50;5059366;28;20037;-75
2023/05/09 10:18:29;;;;;;;8.20;5.18;;;;;;;15.39;92.32;101053.94;5059437;28;20078;-76
2023/05/09 10:20:56;;;;;;;9.00;5.28;;;;;;;15.39;91.19;101040.94;5060732;28;20142;-76
2023/05/09 10:23:23;;;;;;;7.03;4.43;;;;;;;15.55;90.96;101050.03;5059273;28;20040;-77
2023/05/09 10:25:57;;;;;;;7.72;4.68;;;;;;;15.60;89.61;101059.72;5059186;28;20040;-76
2023/05/09 10:28:30;;;;;;;7.55;4.07;;;;;;;15.09;86.28;100980.34;5059479;28;20020;-75
2023/05/09 10:31:01;;;;;;;9.00;4.50;;;;;;;15.39;89.47;101035.72;5059114;28;20021;-76
2023/05/09 10:33:46;;;;;;;6.90;4.20;;;;;;;15.27;89.17;101039.75;5045309;28;20024;-73
2023/05/09 10:36:16;;;;;;;8.32;4.40;;;;;;;15.44;88.24;101058.44;5063684;28;20040;-73
2023/05/09 10:38:43;;;;;;;8.50;4.75;;;;;;;15.34;88.18;101038.22;5061361;28;20025;-75
2023/05/09 10:41:11;;;;;;;10.60;4.70;;;;;;;15.29;89.46;101027.69;5064139;28;20045;-74
2023/05/09 10:43:36;;;;;;;7.45;4.20;;;;;;;15.36;87.09;101024.41;5063459;28;20025;-74
2023/05/09 10:46:05;;;;;;;9.40;4.32;;;;;;;15.55;90.84;101026.59;5066976;28;20467;-76
2023/05/09 10:48:33;;;;;;;10.15;4.07;;;;;;;15.72;85.54;101042.66;5073729;28;20025;-75
2023/05/09 10:51:00;;;;;;;8.02;4.22;;;;;;;15.62;85.51;101026.78;5073751;28;20082;-75
2023/05/09 10:53:43;;;;;;;5.57;4.10;;;;;;;15.79;82.85;101052.38;5073640;28;20037;-74
2023/05/09 10:56:20;;;;;;;9.18;4.55;;;;;;;15.83;83.35;101038.63;5055804;28;20090;-74
2023/05/09 10:58:48;;;;;;;6.97;4.13;;;;;;;15.93;86.33;101043.19;5073373;28;20089;-75
2023/05/09 11:01:37;;;;;;;7.18;4.47;;;;;;;15.19;85.42;100947.66;5021493;28;20050;-74
2023/05/09 11:04:15;;;;;;;8.98;4.90;;;;;;;15.69;87.08;101059.06;5073645;28;20027;-75
2023/05/09 11:06:47;;;;;;;7.78;3.90;;;;;;;15.71;87.91;101057.38;5073425;28;20053;-74
2023/05/09 11:09:37;;;;;;;7.30;4.57;;;;;;;15.69;87.24;101059.06;5055537;28;20047;-74
2023/05/09 11:12:06;;;;;;;7.95;4.05;;;;;;;15.24;87.66;100990.28;5073320;28;20044;-73
2023/05/09 11:14:38;;;;;;;7.72;4.25;;;;;;;15.56;87.43;101055.25;5073274;28;20082;-74
2023/05/09 11:17:07;;;;;;;8.25;3.90;;;;;;;15.43;86.42;101035.00;5055224;28;20486;-78